Aviation Digital Data Service (ADDS)

Output produced by METARs form (1824 UTC 16 August 2018)
found at http://www.aviationweather.gov/adds/metars/
 
TAF MKJP 161715Z 1618/1718 14022KT 9999 FEW022CB 
     BECMG 1704/1706 35005KT FEW022 
     BECMG 1714/1716 14020KT
       
TAF MKJS 161715Z 1618/1718 08020KT 9999 SCT020 SCT022CB 
     PROB40 
     TEMPO 1619/1623 TS BKN018CB 
     BECMG 1701/1703 15005KT FEW022 
     BECMG 1714/1716 06020KT